• Join FlightAware (Why Join?)
  • Login
  • US Flag 
12:12PM EDT


 

Airport Tracker/Info


-or-


 

Live Flight TrackerFlight Track Log ✈ SWA1017 ✈ 12-Nov-2013 ✈ KAUS - KDAL

Flight Track Log - Related Links

Times and Time Zones

All times are in EST time to prevent confusion due to time zone crossing. See the SWA1017 flight status page for this flight to view local times or setup timezone preferences in your user account.

Time Position Orientation Groundspeed Altitude Reporting Facility
EST Latitude Longitude Course Direction KTS MPH feet Rate Location/Type
07:35AM 30.3028 -97.5944 58° Northeast 212 244 6,000  Level Houston Center
07:36AM 30.3561 -97.5367 43° Northeast 251 289 8,600 2,460 Climbing Houston Center
07:37AM 30.4153 -97.4692 45° Northeast 289 333 11,000 2,640 Climbing Houston Center
07:38AM 30.4867 -97.3919 43° Northeast 343 395 14,000 2,700 Climbing Houston Center
07:39AM 30.7232 -97.5106 45° Northeast  Level Estimated
07:39AM 30.5608 -97.3119 43° Northeast 359 413 16,500  Level Houston Center
07:40AM 30.7713 -97.4206 58° Northeast  Level FlightAware Approximate
07:40AM 30.6369 -97.2219 45° Northeast 386 444 18,500  Level Houston Center
07:41AM 30.7144 -97.1272 46° Northeast 401 461 20,900 1,680 Climbing Houston Center
07:42AM 30.7964 -97.0308 45° Northeast 418 481 22,000 540 Climbing Houston Center
07:43AM 30.8800 -96.9308 46° Northeast 430 495 22,000  Level Houston Center
07:44AM 30.9639 -96.8300 46° Northeast 431 496 22,000  Level Houston Center
07:45AM 31.0464 -96.7300 46° Northeast 427 491 22,000  Level Houston Center
07:46AM 31.1292 -96.6314 46° Northeast 424 488 22,000  Level Houston Center
07:47AM 31.2264 -96.5614 32° Northeast 425 489 22,000  Level Houston Center
07:48AM 31.3528 -96.5144 18° North 406 467 22,000  Level Houston Center
07:49AM 31.4611 -96.4736 18° North 406 467 22,000  Level Houston Center
07:50AM 31.5714 -96.4358 16° North 407 468 22,000 -300 Level Houston Center
07:51AM 31.6800 -96.3972 17° North 404 465 21,500 -1,560 Descending Houston Center
07:52AM 31.8039 -96.3550 16° North 395 455 18,700 -2,280 Descending Fort Worth Center
07:53AM 31.9058 -96.3219 15° North 389 448 16,600 -2,340 Descending Fort Worth Center
07:54AM 32.0058 -96.2839 18° North 379 436 14,100 -2,400 Descending Fort Worth Center
07:55AM 32.0994 -96.2483 18° North 363 418 11,800 -2,100 Descending Fort Worth Center
07:56AM 32.1911 -96.2278 11° North 349 402 10,000 -900 Descending Fort Worth Center
07:57AM 32.2708 -96.2683 337° Northwest 310 357 10,000 -60 Level Fort Worth Center
07:58AM 32.3547 -96.3214 332° Northwest 317 365 9,900 -420 Descending Fort Worth Center
07:59AM 32.4200 -96.3675 329° Northwest 294 338 9,200 -1,140 Descending Fort Worth Center
08:00AM 32.4661 -96.4211 316° Northwest 264 304 7,700 -1,680 Descending Fort Worth Center
08:01AM 32.5231 -96.4844 317° Northwest 259 298 5,900 -1,440 Descending Fort Worth Center
08:02AM 32.5672 -96.5358 316° Northwest 254 292 4,900 -840 Descending Fort Worth Center
08:03AM 32.6136 -96.5897 316° Northwest 223 257 4,300 -660 Descending Fort Worth Center
08:04AM 32.6450 -96.6264 315° West 190 219 3,600 -720 Descending Fort Worth Center
08:05AM 32.6808 -96.6681 316° Northwest 164 189 2,900 -660 Descending Fort Worth Center
08:06AM 32.7081 -96.6975 318° Northwest 159 183 2,300 -360 Descending Fort Worth Center
08:07AM 32.7417 -96.7367 316° Northwest 154 177 2,200 -60 Descending Fort Worth Center
08:08AM 32.7711 -96.7686 318° Northwest 154 177 2,200 -300 Level Fort Worth Center
08:09AM 32.7964 -96.8006 313° West 132 152 1,600 -660 Descending Fort Worth Center
08:10AM 32.8175 -96.8250 316° Northwest 120 138 900 -720 Descending Fort Worth Center
08:12AM 32.8333 -96.8500 301° West  Level FlightAware Approximate
08:19AM 32.8471 -96.8518 301° West  Level Estimated
08:20AM 32.8471 -96.8518 301° West  Level Estimated